Terminal Aerodrome Forecast
Issued by NWS

Home | Current Version | Previous Version | Text Only | Print | Product List | Glossary On
Versions: 1 2 3 4 5 6 7 8 9 10 11 12 13 14 15 16 17 18
000
FTUS44 KHGX 272327
TAFUTS
TAF
KUTS 272327Z 2800/2824 09010KT P6SM VCTS SCT035CB BKN120
      TEMPO 2800/2802 VRB17KT 3SM TSRA BKN030CB
     FM280200 08006KT P6SM FEW050 BKN120
     FM280400 VRB03KT P6SM BKN120
     FM281100 VRB03KT P6SM SCT015 BKN150
     FM281700 05004KT P6SM VCSH BKN035 BKN180 PROB30 2820/2824 TSRA
      BKN035CB=

USA.gov is the U.S. government's official web portal to all federal, state and local government web resources and services.